Terminal Aerodrome Forecast
Issued by NWS Birmingham, AL

Home | Current Version | Previous Version | Text Only | Print | Product List | Glossary On
Versions: 1 2 3 4 5 6 7 8 9 10 11 12 13 14 15 16 17
000
FTUS44 KBMX 250920 AAA
TAFBHM
TAF AMD
KBHM 250920Z 2509/2606 30013G20KT P6SM VCSH BKN018
     FM251030 30013G20KT P6SM BKN035
     FM251200 32010KT P6SM SKC
     FM251600 31011G20KT P6SM SKC=

USA.gov is the U.S. government's official web portal to all federal, state and local government web resources and services.